sensor_id;sensor_type;location;lat;lon;timestamp;pressure;altitude;pressure_sealevel;temperature;humidity
74435;BME280;62867;52.038;29.256;2023-06-14T00:01:40;1023.6;;;16.4;64.3
74435;BME280;62867;52.038;29.256;2023-06-14T00:07:34;1023.5;;;16.4;64.4
74435;BME280;62867;52.038;29.256;2023-06-14T00:12:18;1023.5;;;16.3;64.5
74435;BME280;62867;52.038;29.256;2023-06-14T00:17:16;1023.4;;;16.3;64.3
74435;BME280;62867;52.038;29.256;2023-06-14T00:22:28;1023.3;;;16.2;64.3
74435;BME280;62867;52.038;29.256;2023-06-14T00:27:34;1023.3;;;16.1;64.1
74435;BME280;62867;52.038;29.256;2023-06-14T00:37:34;1023.3;;;15.9;63.8
74435;BME280;62867;52.038;29.256;2023-06-14T00:42:00;1023.2;;;15.7;63.7
74435;BME280;62867;52.038;29.256;2023-06-14T00:47:35;1023.2;;;15.6;63.9
74435;BME280;62867;52.038;29.256;2023-06-14T00:51:42;1023.2;;;15.4;64
74435;BME280;62867;52.038;29.256;2023-06-14T00:57:34;1023.2;;;15.3;64.2
74435;BME280;62867;52.038;29.256;2023-06-14T01:01:54;1023.2;;;15.2;64.4
74435;BME280;62867;52.038;29.256;2023-06-14T01:07:33;1023.2;;;15.1;64.6
74435;BME280;62867;52.038;29.256;2023-06-14T01:12:20;1023.2;;;15;64.7
74435;BME280;62867;52.038;29.256;2023-06-14T01:17:14;1023.1;;;14.9;64.6
74435;BME280;62867;52.038;29.256;2023-06-14T01:22:16;1023.2;;;14.8;64.8
74435;BME280;62867;52.038;29.256;2023-06-14T01:27:32;1023.2;;;14.8;64.8
74435;BME280;62867;52.038;29.256;2023-06-14T01:32:32;1023.2;;;14.7;64.7
74435;BME280;62867;52.038;29.256;2023-06-14T01:37:34;1023.2;;;14.6;64.8
74435;BME280;62867;52.038;29.256;2023-06-14T01:41:50;1023.2;;;14.5;65.1
74435;BME280;62867;52.038;29.256;2023-06-14T01:47:34;1023.2;;;14.4;65.2
74435;BME280;62867;52.038;29.256;2023-06-14T01:51:42;1023.2;;;14.4;65.4
74435;BME280;62867;52.038;29.256;2023-06-14T01:57:34;1023.2;;;14.4;65.5
74435;BME280;62867;52.038;29.256;2023-06-14T02:01:40;1023.2;;;14.3;65.6
74435;BME280;62867;52.038;29.256;2023-06-14T02:07:34;1023.2;;;14.3;65.6
74435;BME280;62867;52.038;29.256;2023-06-14T02:12:18;1023.3;;;14.4;65.5
74435;BME280;62867;52.038;29.256;2023-06-14T02:17:34;1023.3;;;14.4;65.5
74435;BME280;62867;52.038;29.256;2023-06-14T02:21:50;1023.3;;;14.4;65.6
74435;BME280;62867;52.038;29.256;2023-06-14T02:27:34;1023.4;;;14.4;65.6
74435;BME280;62867;52.038;29.256;2023-06-14T02:32:16;1023.4;;;14.4;65.7
74435;BME280;62867;52.038;29.256;2023-06-14T02:37:34;1023.4;;;14.4;65.7
74435;BME280;62867;52.038;29.256;2023-06-14T02:42:00;1023.4;;;14.4;65.7
74435;BME280;62867;52.038;29.256;2023-06-14T02:47:34;1023.5;;;14.4;66.1
74435;BME280;62867;52.038;29.256;2023-06-14T02:52:16;1023.5;;;14.6;66.2
74435;BME280;62867;52.038;29.256;2023-06-14T02:57:06;1023.6;;;14.7;66.2
74435;BME280;62867;52.038;29.256;2023-06-14T03:01:40;1023.6;;;14.7;66.2
74435;BME280;62867;52.038;29.256;2023-06-14T03:07:34;1023.6;;;14.8;66.2
74435;BME280;62867;52.038;29.256;2023-06-14T03:12:16;1023.6;;;14.8;66.1
74435;BME280;62867;52.038;29.256;2023-06-14T03:17:32;1023.7;;;14.9;66.3
74435;BME280;62867;52.038;29.256;2023-06-14T03:21:40;1023.7;;;15;66.3
74435;BME280;62867;52.038;29.256;2023-06-14T03:27:32;1023.6;;;15.1;66.1
74435;BME280;62867;52.038;29.256;2023-06-14T03:31:55;1023.6;;;15.2;66.1
74435;BME280;62867;52.038;29.256;2023-06-14T03:37:32;1023.6;;;15.4;66.1
74435;BME280;62867;52.038;29.256;2023-06-14T03:42:00;1023.6;;;15.5;66
74435;BME280;62867;52.038;29.256;2023-06-14T03:47:34;1023.7;;;15.6;66.2
74435;BME280;62867;52.038;29.256;2023-06-14T03:52:16;1023.7;;;15.8;66
74435;BME280;62867;52.038;29.256;2023-06-14T03:57:34;1023.6;;;16;65.8
74435;BME280;62867;52.038;29.256;2023-06-14T04:01:40;1023.6;;;16.2;66.1
74435;BME280;62867;52.038;29.256;2023-06-14T04:07:34;1023.6;;;16.3;65.4
74435;BME280;62867;52.038;29.256;2023-06-14T04:12:18;1023.5;;;16.5;65.2
74435;BME280;62867;52.038;29.256;2023-06-14T04:17:34;1023.6;;;16.7;64.7
74435;BME280;62867;52.038;29.256;2023-06-14T04:22:00;1023.6;;;16.8;64.2
74435;BME280;62867;52.038;29.256;2023-06-14T04:27:32;1023.5;;;17.1;63.1
74435;BME280;62867;52.038;29.256;2023-06-14T04:32:18;1023.5;;;17.5;62.4
74435;BME280;62867;52.038;29.256;2023-06-14T04:37:32;1023.5;;;17.8;61.4
74435;BME280;62867;52.038;29.256;2023-06-14T04:41:58;1023.5;;;18.1;59.5
74435;BME280;62867;52.038;29.256;2023-06-14T04:47:34;1023.5;;;18.4;57.5
74435;BME280;62867;52.038;29.256;2023-06-14T04:52:18;1023.5;;;18.6;57.8
74435;BME280;62867;52.038;29.256;2023-06-14T04:57:34;1023.5;;;18.8;58.1
74435;BME280;62867;52.038;29.256;2023-06-14T05:01:40;1023.4;;;19.2;56.4
74435;BME280;62867;52.038;29.256;2023-06-14T05:07:22;1023.3;;;19.6;54.9
74435;BME280;62867;52.038;29.256;2023-06-14T05:12:18;1023.3;;;19.8;54.4
74435;BME280;62867;52.038;29.256;2023-06-14T05:17:34;1023.2;;;19.6;55.2
74435;BME280;62867;52.038;29.256;2023-06-14T05:21:40;1023.2;;;19.7;54.4
74435;BME280;62867;52.038;29.256;2023-06-14T05:27:34;1023.2;;;19.9;53.8
74435;BME280;62867;52.038;29.256;2023-06-14T05:32:18;1023.2;;;20.1;53.1
74435;BME280;62867;52.038;29.256;2023-06-14T05:37:34;1023.2;;;20.3;52.4
74435;BME280;62867;52.038;29.256;2023-06-14T05:41:40;1023.2;;;20.7;51.4
74435;BME280;62867;52.038;29.256;2023-06-14T05:47:34;1023.2;;;21.1;51.2
74435;BME280;62867;52.038;29.256;2023-06-14T05:52:18;1023.2;;;21.5;51.1
74435;BME280;62867;52.038;29.256;2023-06-14T05:57:36;1023.1;;;21.8;50.1
74435;BME280;62867;52.038;29.256;2023-06-14T06:01:52;1023.1;;;22.2;50
74435;BME280;62867;52.038;29.256;2023-06-14T06:07:02;1023.1;;;22.6;49.5
74435;BME280;62867;52.038;29.256;2023-06-14T06:12:18;1023.1;;;22.8;48.9
74435;BME280;62867;52.038;29.256;2023-06-14T06:17:34;1023;;;23.1;47.7
74435;BME280;62867;52.038;29.256;2023-06-14T06:22:16;1023;;;23.4;46.5
74435;BME280;62867;52.038;29.256;2023-06-14T06:27:04;1023;;;23.2;47.1
74435;BME280;62867;52.038;29.256;2023-06-14T06:32:21;1023;;;23.1;47.4
74435;BME280;62867;52.038;29.256;2023-06-14T06:37:36;1023.1;;;23.3;47.3
74435;BME280;62867;52.038;29.256;2023-06-14T06:42:16;1023;;;23.8;46.9
74435;BME280;62867;52.038;29.256;2023-06-14T06:47:34;1023;;;24.1;45.9
74435;BME280;62867;52.038;29.256;2023-06-14T06:52:18;1023;;;24.4;45.6
74435;BME280;62867;52.038;29.256;2023-06-14T06:57:36;1022.9;;;24.8;45.6
74435;BME280;62867;52.038;29.256;2023-06-14T07:02:16;1022.9;;;25.2;45
74435;BME280;62867;52.038;29.256;2023-06-14T07:07:34;1022.9;;;25.4;44.3
74435;BME280;62867;52.038;29.256;2023-06-14T07:12:18;1022.9;;;25.6;43.6
74435;BME280;62867;52.038;29.256;2023-06-14T07:17:36;1022.8;;;25.9;43.4
74435;BME280;62867;52.038;29.256;2023-06-14T07:21:40;1022.8;;;26.2;42.5
74435;BME280;62867;52.038;29.256;2023-06-14T07:27:36;1022.8;;;26.3;41.6
74435;BME280;62867;52.038;29.256;2023-06-14T07:32:24;1022.9;;;26.5;41
74435;BME280;62867;52.038;29.256;2023-06-14T07:37:12;1022.9;;;26.7;40.7
74435;BME280;62867;52.038;29.256;2023-06-14T07:42:36;1023;;;27;40
74435;BME280;62867;52.038;29.256;2023-06-14T07:47:24;1023;;;27;40.7
74435;BME280;62867;52.038;29.256;2023-06-14T07:52:36;1023;;;26.7;41.3
74435;BME280;62867;52.038;29.256;2023-06-14T07:56:52;1023;;;26.4;41.6
74435;BME280;62867;52.038;29.256;2023-06-14T08:02:34;1023;;;26.5;42.1
74435;BME280;62867;52.038;29.256;2023-06-14T08:07:24;1023;;;26.6;41.9
74435;BME280;62867;52.038;29.256;2023-06-14T08:12:36;1023;;;27;42
74435;BME280;62867;52.038;29.256;2023-06-14T08:16:40;1023;;;27.3;41
74435;BME280;62867;52.038;29.256;2023-06-14T08:22:34;1022.9;;;27.6;40.7
74435;BME280;62867;52.038;29.256;2023-06-14T08:27:36;1022.9;;;28;40.5
74435;BME280;62867;52.038;29.256;2023-06-14T08:32:34;1022.9;;;28.1;39.9
74435;BME280;62867;52.038;29.256;2023-06-14T08:36:56;1023;;;28.1;40.3
74435;BME280;62867;52.038;29.256;2023-06-14T08:42:32;1022.9;;;28.1;40.4
74435;BME280;62867;52.038;29.256;2023-06-14T08:47:10;1023;;;28;41.2
74435;BME280;62867;52.038;29.256;2023-06-14T08:52:37;1023;;;27.9;41.3
74435;BME280;62867;52.038;29.256;2023-06-14T08:56:40;1023;;;27.5;41.8
74435;BME280;62867;52.038;29.256;2023-06-14T09:02:36;1022.9;;;27.2;42.1
74435;BME280;62867;52.038;29.256;2023-06-14T09:06:42;1022.9;;;27.1;42
74435;BME280;62867;52.038;29.256;2023-06-14T09:12:36;1022.9;;;26.8;43
74435;BME280;62867;52.038;29.256;2023-06-14T09:17:24;1022.9;;;26.5;44.1
74435;BME280;62867;52.038;29.256;2023-06-14T09:22:30;1022.9;;;26.6;43.6
74435;BME280;62867;52.038;29.256;2023-06-14T09:27:25;1022.9;;;26.8;44.4
74435;BME280;62867;52.038;29.256;2023-06-14T09:32:37;1022.8;;;26.8;44.2
74435;BME280;62867;52.038;29.256;2023-06-14T09:36:40;1022.8;;;26.9;43.9
74435;BME280;62867;52.038;29.256;2023-06-14T09:42:38;1022.8;;;27;44.2
74435;BME280;62867;52.038;29.256;2023-06-14T09:47:24;1022.8;;;27.2;43.3
74435;BME280;62867;52.038;29.256;2023-06-14T09:52:36;1022.8;;;28.3;42
74435;BME280;62867;52.038;29.256;2023-06-14T09:57:09;1022.8;;;28.4;42.1
74435;BME280;62867;52.038;29.256;2023-06-14T10:02:36;1022.8;;;27.9;42
74435;BME280;62867;52.038;29.256;2023-06-14T10:07:22;1022.8;;;27.3;41.9
74435;BME280;62867;52.038;29.256;2023-06-14T10:12:36;1022.9;;;26.9;42.3
74435;BME280;62867;52.038;29.256;2023-06-14T10:16:42;1022.9;;;26.8;43.2
74435;BME280;62867;52.038;29.256;2023-06-14T10:22:38;1022.8;;;26.9;43.7
74435;BME280;62867;52.038;29.256;2023-06-14T10:26:58;1022.9;;;27;43.3
74435;BME280;62867;52.038;29.256;2023-06-14T10:32:47;1022.9;;;27;42.7
74435;BME280;62867;52.038;29.256;2023-06-14T10:37:24;1022.8;;;26.9;42.9
74435;BME280;62867;52.038;29.256;2023-06-14T10:42:36;1022.8;;;26.9;43.7
74435;BME280;62867;52.038;29.256;2023-06-14T10:47:25;1022.8;;;26.9;44.1
74435;BME280;62867;52.038;29.256;2023-06-14T10:52:38;1022.8;;;26.9;44
74435;BME280;62867;52.038;29.256;2023-06-14T10:56:45;1022.8;;;26.9;44.5
74435;BME280;62867;52.038;29.256;2023-06-14T11:03:45;1022.8;;;27;43.7
74435;BME280;62867;52.038;29.256;2023-06-14T11:07:27;1022.8;;;27.6;42.7
74435;BME280;62867;52.038;29.256;2023-06-14T11:12:36;1022.8;;;27.7;43.3
74435;BME280;62867;52.038;29.256;2023-06-14T11:16:40;1022.8;;;27.5;43.6
74435;BME280;62867;52.038;29.256;2023-06-14T11:22:41;1022.8;;;27.2;43.4
74435;BME280;62867;52.038;29.256;2023-06-14T11:27:26;1022.8;;;26.9;42.8
74435;BME280;62867;52.038;29.256;2023-06-14T11:32:38;1022.8;;;26.8;43.1
74435;BME280;62867;52.038;29.256;2023-06-14T11:37:08;1022.8;;;27;43
74435;BME280;62867;52.038;29.256;2023-06-14T11:42:39;1022.8;;;27.4;42.8
74435;BME280;62867;52.038;29.256;2023-06-14T11:47:24;1022.8;;;28.3;41.7
74435;BME280;62867;52.038;29.256;2023-06-14T11:52:38;1022.7;;;29.7;40.8
74435;BME280;62867;52.038;29.256;2023-06-14T11:56:41;1022.7;;;30.4;39.4
74435;BME280;62867;52.038;29.256;2023-06-14T12:02:38;1022.7;;;31.8;37.9
74435;BME280;62867;52.038;29.256;2023-06-14T12:07:22;1022.6;;;33.7;35.6
74435;BME280;62867;52.038;29.256;2023-06-14T12:12:39;1022.7;;;33.1;35.4
74435;BME280;62867;52.038;29.256;2023-06-14T12:17:03;1022.7;;;31.9;35.3
74435;BME280;62867;52.038;29.256;2023-06-14T12:22:20;1022.7;;;31.2;36.6
74435;BME280;62867;52.038;29.256;2023-06-14T12:27:25;1022.7;;;31.6;37
74435;BME280;62867;52.038;29.256;2023-06-14T12:32:36;1022.7;;;31.4;35.9
74435;BME280;62867;52.038;29.256;2023-06-14T12:36:52;1022.7;;;31.1;35.5
74435;BME280;62867;52.038;29.256;2023-06-14T12:42:38;1022.7;;;31.1;36.9
74435;BME280;62867;52.038;29.256;2023-06-14T12:47:22;1022.7;;;30.9;36.9
74435;BME280;62867;52.038;29.256;2023-06-14T12:52:38;1022.7;;;30.6;37
74435;BME280;62867;52.038;29.256;2023-06-14T12:56:40;1022.7;;;30;38.9
74435;BME280;62867;52.038;29.256;2023-06-14T13:02:36;1022.7;;;29.4;38.6
74435;BME280;62867;52.038;29.256;2023-06-14T13:07:24;1022.6;;;29.1;39.5
74435;BME280;62867;52.038;29.256;2023-06-14T13:12:36;1022.6;;;28.8;39.2
74435;BME280;62867;52.038;29.256;2023-06-14T13:16:40;1022.6;;;28.5;39.9
74435;BME280;62867;52.038;29.256;2023-06-14T13:22:38;1022.6;;;28.4;40.9
74435;BME280;62867;52.038;29.256;2023-06-14T13:27:25;1022.6;;;28.4;40.6
74435;BME280;62867;52.038;29.256;2023-06-14T13:32:36;1022.5;;;28.5;39.7
74435;BME280;62867;52.038;29.256;2023-06-14T13:36:40;1022.6;;;28.3;40.3
74435;BME280;62867;52.038;29.256;2023-06-14T13:42:08;1022.6;;;28.2;39.1
74435;BME280;62867;52.038;29.256;2023-06-14T13:47:24;1022.5;;;28;39.1
74435;BME280;62867;52.038;29.256;2023-06-14T13:52:38;1022.6;;;27.9;41.9
74435;BME280;62867;52.038;29.256;2023-06-14T13:56:54;1022.6;;;27.8;42.4
74435;BME280;62867;52.038;29.256;2023-06-14T14:02:38;1022.6;;;27.6;41.7
74435;BME280;62867;52.038;29.256;2023-06-14T14:07:24;1022.6;;;27.8;41.1
74435;BME280;62867;52.038;29.256;2023-06-14T14:12:38;1022.6;;;27.8;41.7
74435;BME280;62867;52.038;29.256;2023-06-14T14:16:52;1022.6;;;27.7;41.7
74435;BME280;62867;52.038;29.256;2023-06-14T14:22:38;1022.5;;;27.5;42.9
74435;BME280;62867;52.038;29.256;2023-06-14T14:26:58;1022.6;;;27.3;42.4
74435;BME280;62867;52.038;29.256;2023-06-14T14:32:38;1022.5;;;27;42.2
74435;BME280;62867;52.038;29.256;2023-06-14T14:36:40;1022.5;;;26.9;42.6
74435;BME280;62867;52.038;29.256;2023-06-14T14:42:38;1022.5;;;26.8;43.2
74435;BME280;62867;52.038;29.256;2023-06-14T14:47:38;1022.5;;;26.7;44
74435;BME280;62867;52.038;29.256;2023-06-14T14:52:38;1022.5;;;26.6;44.4
74435;BME280;62867;52.038;29.256;2023-06-14T14:56:40;1022.5;;;26.5;44.7
74435;BME280;62867;52.038;29.256;2023-06-14T15:02:36;1022.5;;;26.2;44.8
74435;BME280;62867;52.038;29.256;2023-06-14T15:06:42;1022.4;;;26.3;44.8
74435;BME280;62867;52.038;29.256;2023-06-14T15:12:38;1022.4;;;26.2;43.8
74435;BME280;62867;52.038;29.256;2023-06-14T15:16:40;1022.4;;;26.2;44.4
74435;BME280;62867;52.038;29.256;2023-06-14T15:22:39;1022.4;;;26.2;45.1
74435;BME280;62867;52.038;29.256;2023-06-14T15:26:58;1022.4;;;26.1;45.7
74435;BME280;62867;52.038;29.256;2023-06-14T15:32:36;1022.4;;;26;45.3
74435;BME280;62867;52.038;29.256;2023-06-14T15:36:40;1022.4;;;25.7;45.8
74435;BME280;62867;52.038;29.256;2023-06-14T15:42:38;1022.4;;;25.4;46.3
74435;BME280;62867;52.038;29.256;2023-06-14T15:47:08;1022.5;;;25.2;48.6
74435;BME280;62867;52.038;29.256;2023-06-14T15:52:24;1022.4;;;25.1;48.2
74435;BME280;62867;52.038;29.256;2023-06-14T15:56:40;1022.4;;;24.9;47.7
74435;BME280;62867;52.038;29.256;2023-06-14T16:02:37;1022.5;;;24.7;48.2
74435;BME280;62867;52.038;29.256;2023-06-14T16:07:24;1022.5;;;24.6;48.3
74435;BME280;62867;52.038;29.256;2023-06-14T16:12:38;1022.5;;;24.5;48.4
74435;BME280;62867;52.038;29.256;2023-06-14T16:16:53;1022.5;;;24.5;49.4
74435;BME280;62867;52.038;29.256;2023-06-14T16:22:39;1022.5;;;24.6;49.3
74435;BME280;62867;52.038;29.256;2023-06-14T16:27:25;1022.6;;;24.6;49.8
74435;BME280;62867;52.038;29.256;2023-06-14T16:32:39;1022.6;;;24.6;49.5
74435;BME280;62867;52.038;29.256;2023-06-14T16:36:41;1022.6;;;24.6;49.8
74435;BME280;62867;52.038;29.256;2023-06-14T16:42:35;1022.7;;;24.5;50.2
74435;BME280;62867;52.038;29.256;2023-06-14T16:47:24;1022.7;;;24.5;50.2
74435;BME280;62867;52.038;29.256;2023-06-14T16:52:39;1022.7;;;24.5;50.7
74435;BME280;62867;52.038;29.256;2023-06-14T16:56:53;1022.7;;;24.4;50.6
74435;BME280;62867;52.038;29.256;2023-06-14T17:02:37;1022.7;;;24.3;49.9
74435;BME280;62867;52.038;29.256;2023-06-14T17:06:43;1022.7;;;24.2;51.5
74435;BME280;62867;52.038;29.256;2023-06-14T17:12:07;1022.7;;;24;52.6
74435;BME280;62867;52.038;29.256;2023-06-14T17:16:53;1022.7;;;23.8;53.5
74435;BME280;62867;52.038;29.256;2023-06-14T17:22:19;1022.6;;;23.6;54.8
74435;BME280;62867;52.038;29.256;2023-06-14T17:27:41;1022.6;;;23.3;55.9
74435;BME280;62867;52.038;29.256;2023-06-14T17:32:05;1022.7;;;23.1;56.6
74435;BME280;62867;52.038;29.256;2023-06-14T17:36:41;1022.6;;;22.8;57.3
74435;BME280;62867;52.038;29.256;2023-06-14T17:42:19;1022.7;;;22.6;57.8
74435;BME280;62867;52.038;29.256;2023-06-14T17:47:38;1022.8;;;22.4;58.5
74435;BME280;62867;52.038;29.256;2023-06-14T17:52:03;1022.8;;;22.3;58.5
74435;BME280;62867;52.038;29.256;2023-06-14T17:56:53;1022.8;;;22.1;58.6
74435;BME280;62867;52.038;29.256;2023-06-14T18:02:21;1022.8;;;22.1;59
74435;BME280;62867;52.038;29.256;2023-06-14T18:07:39;1022.8;;;22;59.3
74435;BME280;62867;52.038;29.256;2023-06-14T18:11:53;1022.8;;;21.9;59.5
74435;BME280;62867;52.038;29.256;2023-06-14T18:16:53;1022.9;;;21.8;59.7
74435;BME280;62867;52.038;29.256;2023-06-14T18:22:21;1022.8;;;21.6;60.3
74435;BME280;62867;52.038;29.256;2023-06-14T18:27:39;1022.9;;;21.5;60.7
74435;BME280;62867;52.038;29.256;2023-06-14T18:31:57;1022.9;;;21.3;61
74435;BME280;62867;52.038;29.256;2023-06-14T18:36:43;1022.9;;;21.1;61.3
74435;BME280;62867;52.038;29.256;2023-06-14T18:42:23;1022.9;;;20.9;61.8
74435;BME280;62867;52.038;29.256;2023-06-14T18:47:41;1023;;;20.7;62.2
74435;BME280;62867;52.038;29.256;2023-06-14T18:52:09;1023;;;20.6;62.4
74435;BME280;62867;52.038;29.256;2023-06-14T18:56:55;1023.1;;;20.5;62.5
74435;BME280;62867;52.038;29.256;2023-06-14T19:02:19;1023.1;;;20.5;62.8
74435;BME280;62867;52.038;29.256;2023-06-14T19:07:39;1023.1;;;20.5;63
74435;BME280;62867;52.038;29.256;2023-06-14T19:11:43;1023.1;;;20.5;63.1
74435;BME280;62867;52.038;29.256;2023-06-14T19:16:43;1023;;;20.5;63.4
74435;BME280;62867;52.038;29.256;2023-06-14T19:22:21;1023;;;20.4;63.6
74435;BME280;62867;52.038;29.256;2023-06-14T19:27:37;1023.1;;;20.3;63.9
74435;BME280;62867;52.038;29.256;2023-06-14T19:31:55;1023.1;;;20.3;64.3
74435;BME280;62867;52.038;29.256;2023-06-14T19:37:25;1023.1;;;20.2;64.6
74435;BME280;62867;52.038;29.256;2023-06-14T19:42:23;1023.1;;;20.2;64.5
74435;BME280;62867;52.038;29.256;2023-06-14T19:47:25;1023.2;;;20.1;64.5
74435;BME280;62867;52.038;29.256;2023-06-14T19:52:09;1023.3;;;20.1;64.7
74435;BME280;62867;52.038;29.256;2023-06-14T19:56:55;1023.3;;;20.1;64.6
74435;BME280;62867;52.038;29.256;2023-06-14T20:02:37;1023.3;;;20;64.7
74435;BME280;62867;52.038;29.256;2023-06-14T20:07:39;1023.3;;;20;64.8
74435;BME280;62867;52.038;29.256;2023-06-14T20:12:09;1023.3;;;20;65.2
74435;BME280;62867;52.038;29.256;2023-06-14T20:17:25;1023.4;;;20;65.4
74435;BME280;62867;52.038;29.256;2023-06-14T20:21:45;1023.4;;;20.1;65.5
74435;BME280;62867;52.038;29.256;2023-06-14T20:27:39;1023.3;;;20.1;65.6
74435;BME280;62867;52.038;29.256;2023-06-14T20:32:09;1023.3;;;20.1;65.9
74435;BME280;62867;52.038;29.256;2023-06-14T20:36:43;1023.3;;;20.1;65.9
74435;BME280;62867;52.038;29.256;2023-06-14T20:41:57;1023.3;;;20.1;65.6
74435;BME280;62867;52.038;29.256;2023-06-14T20:47:39;1023.3;;;20;65.3
74435;BME280;62867;52.038;29.256;2023-06-14T20:51:43;1023.3;;;20;65.1
74435;BME280;62867;52.038;29.256;2023-06-14T20:57:09;1023.3;;;19.9;65.1
74435;BME280;62867;52.038;29.256;2023-06-14T21:02:09;1023.3;;;19.7;65
74435;BME280;62867;52.038;29.256;2023-06-14T21:07:19;1023.3;;;19.6;65.2
74435;BME280;62867;52.038;29.256;2023-06-14T21:12:07;1023.4;;;19.5;65.3
74435;BME280;62867;52.038;29.256;2023-06-14T21:16:43;1023.4;;;19.4;65.4
74435;BME280;62867;52.038;29.256;2023-06-14T21:22:09;1023.4;;;19.3;65.5
74435;BME280;62867;52.038;29.256;2023-06-14T21:27:39;1023.4;;;19.2;65.8
74435;BME280;62867;52.038;29.256;2023-06-14T21:32:09;1023.4;;;19.1;66
74435;BME280;62867;52.038;29.256;2023-06-14T21:37:07;1023.4;;;19;66
74435;BME280;62867;52.038;29.256;2023-06-14T21:42:21;1023.4;;;18.9;65.9
74435;BME280;62867;52.038;29.256;2023-06-14T21:47:07;1023.4;;;18.9;65.9
74435;BME280;62867;52.038;29.256;2023-06-14T21:52:05;1023.4;;;18.8;65.8
74435;BME280;62867;52.038;29.256;2023-06-14T21:57:23;1023.4;;;18.7;65.8
74435;BME280;62867;52.038;29.256;2023-06-14T22:02:19;1023.3;;;18.6;66
74435;BME280;62867;52.038;29.256;2023-06-14T22:07:07;1023.3;;;18.5;66.2
74435;BME280;62867;52.038;29.256;2023-06-14T22:11:57;1023.3;;;18.4;66.3
74435;BME280;62867;52.038;29.256;2023-06-14T22:16:43;1023.3;;;18.4;66.4
74435;BME280;62867;52.038;29.256;2023-06-14T22:22:21;1023.2;;;18.3;66.6
74435;BME280;62867;52.038;29.256;2023-06-14T22:27:07;1023.2;;;18.3;66.8
74435;BME280;62867;52.038;29.256;2023-06-14T22:32:07;1023.2;;;18.2;66.9
74435;BME280;62867;52.038;29.256;2023-06-14T22:36:53;1023.2;;;18.2;66.8
74435;BME280;62867;52.038;29.256;2023-06-14T22:42:19;1023.2;;;18.1;66.7
74435;BME280;62867;52.038;29.256;2023-06-14T22:47:07;1023.3;;;18.1;66.7
74435;BME280;62867;52.038;29.256;2023-06-14T22:51:53;1023.3;;;18;66.6
74435;BME280;62867;52.038;29.256;2023-06-14T22:57:23;1023.3;;;18;66.7
74435;BME280;62867;52.038;29.256;2023-06-14T23:02:21;1023.4;;;17.9;66.8
74435;BME280;62867;52.038;29.256;2023-06-14T23:07:37;1023.4;;;17.8;66.9
